Time;durP1;ratioP1;P1;durP2;ratioP2;P2;SDS_P1;SDS_P2;PMS_P1;PMS_P2;Temp;Humidity;BMP_temperature;BMP_pressure;BME280_temperature;BME280_humidity;BME280_pressure;Samples;Min_cycle;Max_cycle;Signal;HPM_P1;HPM_P2
2023/05/28 00:00:16;;;;;;;1.58;1.58;;;;;;;17.69;99.58;96665.47;5086020;28;20451;-62
2023/05/28 00:02:43;;;;;;;1.80;1.80;;;;;;;17.69;98.96;96667.47;5086712;28;20052;-62
2023/05/28 00:05:11;;;;;;;1.80;1.80;;;;;;;17.53;99.93;96656.16;5084807;28;20052;-61
2023/05/28 00:07:39;;;;;;;1.40;1.40;;;;;;;17.63;98.86;96677.56;5086200;28;20135;-62
2023/05/28 00:10:06;;;;;;;1.80;1.80;;;;;;;17.62;98.90;96681.59;5084966;28;20514;-62
2023/05/28 00:12:33;;;;;;;1.50;1.50;;;;;;;17.53;98.30;96678.56;5084955;28;20407;-62
2023/05/28 00:15:00;;;;;;;1.67;1.67;;;;;;;17.61;99.64;96680.00;5086709;28;20139;-62
2023/05/28 00:17:27;;;;;;;1.60;1.60;;;;;;;17.32;99.38;96639.66;5085981;28;20060;-62
2023/05/28 00:19:54;;;;;;;1.70;1.70;;;;;;;16.88;94.81;96626.75;5086520;28;20484;-64
2023/05/28 00:22:21;;;;;;;1.60;1.60;;;;;;;17.31;94.10;96694.84;5084582;28;20048;-63
2023/05/28 00:24:48;;;;;;;1.58;1.58;;;;;;;17.17;94.94;96683.06;5085923;28;20469;-61
2023/05/28 00:27:15;;;;;;;1.60;1.60;;;;;;;17.00;95.60;96684.91;5085558;28;20138;-62
2023/05/28 00:29:43;;;;;;;1.55;1.55;;;;;;;16.47;95.50;96612.13;5086019;28;20056;-61
2023/05/28 00:32:10;;;;;;;1.50;1.50;;;;;;;16.87;97.33;96674.69;5084437;28;20129;-62
2023/05/28 00:34:37;;;;;;;1.30;1.30;;;;;;;16.73;98.46;96681.28;5085527;28;20043;-61
2023/05/28 00:37:03;;;;;;;1.50;1.50;;;;;;;16.74;96.11;96679.28;5085609;28;20082;-63
2023/05/28 00:39:30;;;;;;;1.50;1.50;;;;;;;16.85;97.33;96677.13;5085861;28;20086;-62
2023/05/28 00:42:03;;;;;;;1.70;1.70;;;;;;;16.80;96.15;96624.44;4901759;28;5001702;-62
2023/05/28 00:44:33;;;;;;;1.58;1.58;;;;;;;17.09;93.28;96670.38;5104763;28;20532;-61
2023/05/28 00:47:01;;;;;;;1.42;1.42;;;;;;;16.77;94.66;96611.31;5104339;28;20047;-61
2023/05/28 00:49:28;;;;;;;1.75;1.75;;;;;;;17.18;94.63;96670.66;5105813;28;20054;-62
2023/05/28 00:51:56;;;;;;;1.73;1.73;;;;;;;17.01;94.27;96663.34;5105693;28;20165;-61
2023/05/28 00:54:24;;;;;;;1.48;1.48;;;;;;;17.11;94.68;96662.38;5105742;28;20052;-62
2023/05/28 00:56:53;;;;;;;1.60;1.60;;;;;;;17.30;95.23;96653.28;5105875;28;20466;-62
2023/05/28 00:59:24;;;;;;;1.90;1.90;;;;;;;17.07;93.78;96588.88;5104320;28;20069;-62
2023/05/28 01:01:50;;;;;;;1.60;1.60;;;;;;;17.24;92.21;96599.78;5105730;28;20043;-65
2023/05/28 01:04:17;;;;;;;1.73;1.73;;;;;;;17.72;92.16;96641.44;5105738;27;20166;-62
2023/05/28 01:06:45;;;;;;;1.75;1.75;;;;;;;17.74;90.83;96638.97;5106363;28;20043;-62
2023/05/28 01:09:13;;;;;;;1.70;1.70;;;;;;;17.91;90.69;96629.44;5104968;28;20055;-62
2023/05/28 01:11:42;;;;;;;1.70;1.70;;;;;;;18.04;88.22;96625.63;5103154;28;20502;-62
2023/05/28 01:14:11;;;;;;;1.85;1.85;;;;;;;18.10;88.36;96639.91;5105484;28;20518;-62
2023/05/28 01:16:39;;;;;;;1.70;1.70;;;;;;;17.86;88.27;96585.13;5105684;28;20506;-62
2023/05/28 01:19:08;;;;;;;1.80;1.80;;;;;;;17.96;87.56;96598.94;5105248;28;20043;-62
2023/05/28 01:21:41;;;;;;;1.60;1.60;;;;;;;17.90;86.34;96557.81;5093822;28;20131;-63
2023/05/28 01:24:09;;;;;;;1.70;1.70;;;;;;;18.05;87.25;96615.19;5064478;28;20052;-62
2023/05/28 01:26:36;;;;;;;1.83;1.83;;;;;;;17.61;89.14;96568.75;5064334;28;20062;-62
2023/05/28 01:29:13;;;;;;;1.58;1.58;;;;;;;17.68;90.45;96637.88;5064569;28;21914;-64
2023/05/28 01:31:41;;;;;;;1.70;1.70;;;;;;;17.45;93.21;96643.47;5062824;28;20554;-62
2023/05/28 01:34:09;;;;;;;1.63;1.63;;;;;;;16.99;95.62;96604.19;5064493;28;20492;-62
2023/05/28 01:36:41;;;;;;;1.60;1.60;;;;;;;17.28;97.84;96638.91;5064131;28;20048;-61
2023/05/28 01:39:12;;;;;;;1.50;1.50;;;;;;;17.14;99.89;96644.72;5064331;28;20049;-62
2023/05/28 01:41:39;;;;;;;1.50;1.50;;;;;;;17.19;100.00;96638.66;5064498;28;20122;-62
2023/05/28 01:44:07;;;;;;;1.63;1.63;;;;;;;16.87;100.00;96568.38;5064546;28;20418;-62
2023/05/28 01:46:34;;;;;;;1.52;1.52;;;;;;;17.33;100.00;96646.81;5064245;28;20048;-62
2023/05/28 01:49:01;;;;;;;1.70;1.70;;;;;;;16.91;100.00;96602.72;5064085;28;20086;-63
2023/05/28 01:51:28;;;;;;;1.42;1.42;;;;;;;17.02;100.00;96657.31;5064082;28;20466;-63
2023/05/28 01:53:54;;;;;;;1.60;1.60;;;;;;;16.74;100.00;96654.09;5064058;28;20060;-62
2023/05/28 01:56:21;;;;;;;1.50;1.50;;;;;;;16.49;100.00;96655.22;5062534;28;20056;-63
2023/05/28 01:58:48;;;;;;;1.45;1.45;;;;;;;16.44;100.00;96669.66;5062566;28;20537;-63
2023/05/28 02:01:27;;;;;;;1.52;1.52;;;;;;;16.64;100.00;96673.38;5062599;28;20434;-63
2023/05/28 02:03:57;;;;;;;1.30;1.30;;;;;;;16.73;100.00;96661.69;5063473;28;20534;-63
2023/05/28 02:06:26;;;;;;;1.60;1.60;;;;;;;16.44;100.00;96658.47;5064099;28;20052;-64
2023/05/28 02:08:53;;;;;;;1.40;1.40;;;;;;;16.42;100.00;96649.66;5063485;28;20435;-63
2023/05/28 02:11:21;;;;;;;1.63;1.63;;;;;;;16.25;100.00;96602.34;5063892;28;20048;-62
2023/05/28 02:13:48;;;;;;;1.48;1.48;;;;;;;16.68;100.00;96650.19;5062341;28;20602;-62
2023/05/28 02:16:17;;;;;;;1.60;1.60;;;;;;;16.74;100.00;96648.50;5063829;28;20040;-62
2023/05/28 02:18:45;;;;;;;1.70;1.70;;;;;;;16.85;100.00;96654.75;5062216;28;20101;-63
2023/05/28 02:21:12;;;;;;;1.55;1.55;;;;;;;16.92;100.00;96644.25;5079444;28;20502;-62
2023/05/28 02:23:44;;;;;;;1.55;1.55;;;;;;;16.80;100.00;96607.66;5086484;28;20063;-62
2023/05/28 02:26:11;;;;;;;1.67;1.67;;;;;;;16.66;100.00;96574.31;5063331;28;20061;-62
2023/05/28 02:28:37;;;;;;;1.67;1.67;;;;;;;17.11;100.00;96639.97;5063137;28;20565;-63
2023/05/28 02:31:04;;;;;;;1.50;1.50;;;;;;;17.20;100.00;96637.47;5062957;28;20075;-63
2023/05/28 02:33:33;;;;;;;1.50;1.50;;;;;;;17.35;100.00;96644.41;5063978;28;20555;-62
2023/05/28 02:35:59;;;;;;;1.65;1.65;;;;;;;17.37;100.00;96647.59;5062170;28;20055;-62
2023/05/28 02:38:26;;;;;;;1.70;1.70;;;;;;;17.16;100.00;96605.91;5063593;28;20049;-62
2023/05/28 02:40:53;;;;;;;1.60;1.60;;;;;;;17.26;100.00;96652.56;5063514;28;20056;-61
2023/05/28 02:43:19;;;;;;;1.80;1.80;;;;;;;16.96;100.00;96616.22;5064289;28;20080;-64
2023/05/28 02:45:46;;;;;;;1.50;1.50;;;;;;;16.88;99.16;96592.38;5063603;28;20074;-61
2023/05/28 02:48:13;;;;;;;1.65;1.65;;;;;;;16.63;100.00;96548.75;5063746;28;20048;-64
2023/05/28 02:50:40;;;;;;;1.70;1.70;;;;;;;16.66;100.00;96535.16;5062109;28;20045;-61
2023/05/28 02:53:06;;;;;;;1.52;1.52;;;;;;;16.91;100.00;96658.66;5063517;28;20067;-63
2023/05/28 02:55:33;;;;;;;1.50;1.50;;;;;;;16.72;100.00;96622.97;5062058;28;20052;-62
2023/05/28 02:57:59;;;;;;;1.70;1.70;;;;;;;16.20;100.00;96567.28;5063449;28;20047;-63
2023/05/28 03:00:26;;;;;;;1.58;1.58;;;;;;;16.58;100.00;96635.91;5063638;28;20121;-61
2023/05/28 03:02:53;;;;;;;1.60;1.60;;;;;;;16.57;100.00;96655.91;5063193;28;20049;-61
2023/05/28 03:05:20;;;;;;;1.50;1.50;;;;;;;16.83;100.00;96662.78;5063633;28;20155;-61
2023/05/28 03:07:46;;;;;;;1.58;1.58;;;;;;;16.97;100.00;96662.56;5062183;28;20049;-61
2023/05/28 03:10:13;;;;;;;1.45;1.45;;;;;;;16.53;100.00;96572.06;5063337;28;20048;-62
2023/05/28 03:12:40;;;;;;;1.60;1.60;;;;;;;17.31;100.00;96657.69;5063701;28;20048;-61
2023/05/28 03:15:07;;;;;;;1.60;1.60;;;;;;;17.36;100.00;96662.78;5063137;28;20053;-64
2023/05/28 03:17:34;;;;;;;1.80;1.80;;;;;;;17.45;100.00;96660.28;5063385;28;20087;-63
2023/05/28 03:20:00;;;;;;;1.60;1.60;;;;;;;17.62;99.75;96653.59;5078586;28;20090;-61
2023/05/28 03:22:27;;;;;;;1.80;1.80;;;;;;;17.47;99.63;96646.63;5084455;28;20047;-61
2023/05/28 03:24:56;;;;;;;1.52;1.52;;;;;;;17.71;99.11;96656.63;5102253;28;20051;-63
2023/05/28 03:27:23;;;;;;;1.55;1.55;;;;;;;17.70;97.34;96649.47;5104134;28;20053;-61
2023/05/28 03:29:50;;;;;;;1.55;1.55;;;;;;;17.68;96.42;96629.47;5103713;28;20053;-62
2023/05/28 03:32:17;;;;;;;1.60;1.60;;;;;;;17.70;96.27;96655.84;5102109;28;20047;-61
2023/05/28 03:34:43;;;;;;;1.80;1.80;;;;;;;17.42;96.45;96593.91;5103915;28;20048;-61
2023/05/28 03:37:10;;;;;;;1.60;1.60;;;;;;;16.84;95.99;96479.69;5107485;28;20047;-61
2023/05/28 03:39:37;;;;;;;1.70;1.70;;;;;;;17.92;95.26;96645.06;5107774;28;20584;-64
2023/05/28 03:42:05;;;;;;;1.75;1.75;;;;;;;18.01;95.70;96690.13;5106801;28;20063;-61
2023/05/28 03:44:32;;;;;;;1.50;1.50;;;;;;;17.92;95.48;96656.28;5107261;28;20047;-61
2023/05/28 03:46:58;;;;;;;1.65;1.65;;;;;;;18.02;95.52;96650.47;5105384;28;20062;-63
2023/05/28 03:49:25;;;;;;;1.80;1.80;;;;;;;18.10;95.57;96707.19;5105831;28;20051;-60
2023/05/28 03:51:52;;;;;;;1.80;1.80;;;;;;;18.11;96.14;96655.53;5106451;28;20442;-61
2023/05/28 03:54:18;;;;;;;1.90;1.90;;;;;;;18.15;96.42;96659.03;5107116;28;20058;-62
2023/05/28 03:56:45;;;;;;;1.58;1.58;;;;;;;17.87;95.78;96597.91;5106541;27;20070;-61
2023/05/28 03:59:12;;;;;;;1.65;1.65;;;;;;;18.23;95.83;96654.88;5106970;27;20043;-62
2023/05/28 04:01:38;;;;;;;1.73;1.73;;;;;;;18.09;95.09;96657.97;5106590;28;20058;-60
2023/05/28 04:04:05;;;;;;;1.80;1.80;;;;;;;17.24;91.92;96582.19;5106990;28;20044;-60
2023/05/28 04:06:32;;;;;;;1.70;1.70;;;;;;;17.86;92.71;96674.81;5105194;28;20051;-60
2023/05/28 04:08:59;;;;;;;1.65;1.65;;;;;;;17.60;94.62;96670.03;5106730;28;20052;-60
2023/05/28 04:11:29;;;;;;;1.60;1.60;;;;;;;17.59;96.39;96660.06;5106105;28;20052;-60
2023/05/28 04:13:56;;;;;;;1.67;1.67;;;;;;;17.25;97.31;96656.56;5106304;28;20138;-61
2023/05/28 04:16:23;;;;;;;1.67;1.67;;;;;;;17.38;98.00;96649.97;5106297;27;20058;-61
2023/05/28 04:18:50;;;;;;;1.67;1.67;;;;;;;17.44;99.33;96653.06;5105341;28;20721;-61
2023/05/28 04:21:17;;;;;;;1.67;1.67;;;;;;;16.90;99.79;96657.09;5104199;28;20048;-61
2023/05/28 04:23:44;;;;;;;1.50;1.50;;;;;;;17.04;100.00;96673.69;5085719;28;20056;-61
2023/05/28 04:26:11;;;;;;;1.80;1.80;;;;;;;17.31;100.00;96674.47;5085806;28;20150;-60
2023/05/28 04:28:37;;;;;;;1.77;1.77;;;;;;;17.23;100.00;96625.41;5084747;28;20044;-61
2023/05/28 04:31:04;;;;;;;1.75;1.75;;;;;;;17.74;100.00;96667.00;5085957;28;20052;-60
2023/05/28 04:33:31;;;;;;;1.60;1.60;;;;;;;17.90;100.00;96667.91;5085444;28;20055;-60
2023/05/28 04:35:59;;;;;;;1.70;1.70;;;;;;;17.80;100.00;96621.25;5085839;28;20055;-62
2023/05/28 04:38:33;;;;;;;1.77;1.77;;;;;;;18.29;98.60;96669.97;5086001;28;20060;-62
2023/05/28 04:41:03;;;;;;;1.65;1.65;;;;;;;18.51;97.67;96665.56;5083952;28;20060;-61
2023/05/28 04:43:30;;;;;;;2.00;2.00;;;;;;;18.66;96.32;96664.06;5101122;28;20060;-60
2023/05/28 04:45:58;;;;;;;1.80;1.80;;;;;;;18.40;94.03;96616.53;5085422;28;20047;-62
2023/05/28 04:48:25;;;;;;;1.75;1.75;;;;;;;18.86;92.63;96664.84;5085710;28;20055;-63
2023/05/28 04:50:53;;;;;;;2.00;2.00;;;;;;;18.97;92.90;96662.59;5069600;28;20114;-61
2023/05/28 04:53:20;;;;;;;1.98;1.98;;;;;;;18.65;93.71;96631.59;5085413;28;20052;-61
2023/05/28 04:55:47;;;;;;;1.70;1.70;;;;;;;19.06;94.26;96668.41;5083778;28;20484;-61
2023/05/28 04:58:13;;;;;;;1.70;1.70;;;;;;;18.93;90.40;96645.06;5085079;28;20063;-61
2023/05/28 05:00:40;;;;;;;1.90;1.90;;;;;;;19.02;87.75;96673.31;5083717;28;20131;-62
2023/05/28 05:03:08;;;;;;;1.65;1.65;;;;;;;18.87;89.20;96679.69;5083893;28;20071;-62
2023/05/28 05:05:35;;;;;;;1.70;1.70;;;;;;;18.87;89.61;96677.66;5085202;28;20119;-61
2023/05/28 05:08:01;;;;;;;1.88;1.88;;;;;;;18.92;88.87;96674.31;5085004;28;20051;-61
2023/05/28 05:10:28;;;;;;;1.80;1.80;;;;;;;18.96;87.72;96685.50;5083737;28;20067;-61
2023/05/28 05:12:55;;;;;;;2.00;2.00;;;;;;;18.92;88.22;96685.56;5084680;28;20486;-60
2023/05/28 05:15:22;;;;;;;2.10;2.10;;;;;;;18.90;86.57;96679.59;5085268;28;20056;-61
2023/05/28 05:17:48;;;;;;;1.70;1.70;;;;;;;18.97;88.15;96693.47;5085293;28;20696;-60
2023/05/28 05:20:15;;;;;;;1.85;1.85;;;;;;;18.84;88.17;96661.66;5085434;28;20048;-62
2023/05/28 05:22:43;;;;;;;1.75;1.75;;;;;;;19.00;87.74;96686.22;5096804;28;20051;-61
2023/05/28 05:25:10;;;;;;;1.67;1.67;;;;;;;18.96;87.81;96679.88;5105933;28;20422;-61
2023/05/28 05:27:37;;;;;;;1.70;1.70;;;;;;;18.94;88.28;96687.94;5105245;28;20047;-61
2023/05/28 05:30:05;;;;;;;1.80;1.80;;;;;;;19.06;88.38;96690.88;5105172;28;20055;-61
2023/05/28 05:32:32;;;;;;;1.73;1.73;;;;;;;19.09;89.21;96698.44;5104572;28;20055;-61
2023/05/28 05:34:58;;;;;;;1.58;1.58;;;;;;;19.16;89.90;96695.47;5105139;28;20529;-62
2023/05/28 05:37:25;;;;;;;1.80;1.80;;;;;;;19.26;90.23;96694.44;5104764;28;20086;-61
2023/05/28 05:39:52;;;;;;;1.73;1.73;;;;;;;19.02;89.69;96650.84;5104967;28;20156;-61
2023/05/28 05:42:19;;;;;;;1.73;1.73;;;;;;;19.34;89.58;96701.53;5104309;28;20652;-63
2023/05/28 05:44:46;;;;;;;1.70;1.70;;;;;;;19.41;88.72;96701.34;5103331;28;20047;-61
2023/05/28 05:47:13;;;;;;;1.95;1.95;;;;;;;19.47;88.85;96705.22;5104391;28;20126;-63
2023/05/28 05:49:39;;;;;;;1.73;1.73;;;;;;;19.55;88.50;96706.63;5104715;28;20054;-61
2023/05/28 05:52:06;;;;;;;1.80;1.80;;;;;;;19.53;89.24;96708.31;5104352;28;20047;-63
2023/05/28 05:54:33;;;;;;;1.88;1.88;;;;;;;19.45;89.50;96701.25;5104751;27;20050;-63
2023/05/28 05:57:02;;;;;;;1.90;1.90;;;;;;;19.16;86.57;96712.31;5103841;28;20051;-61
2023/05/28 05:59:29;;;;;;;2.00;2.00;;;;;;;19.39;87.87;96703.00;5104308;28;20413;-61
2023/05/28 06:01:55;;;;;;;1.75;1.75;;;;;;;19.45;87.91;96704.88;5102553;28;20047;-61
2023/05/28 06:04:24;;;;;;;1.88;1.88;;;;;;;18.90;88.58;96707.69;5103097;28;20130;-61
2023/05/28 06:06:50;;;;;;;1.85;1.85;;;;;;;18.99;87.16;96707.06;5103751;28;20228;-61
2023/05/28 06:09:18;;;;;;;1.60;1.60;;;;;;;19.07;86.63;96702.91;5104759;28;20066;-61
2023/05/28 06:11:45;;;;;;;2.05;2.05;;;;;;;18.78;86.66;96617.75;5104103;28;20358;-62
2023/05/28 06:14:11;;;;;;;2.00;2.00;;;;;;;19.36;85.95;96704.66;5102751;28;20051;-61
2023/05/28 06:16:38;;;;;;;2.00;2.00;;;;;;;19.63;85.41;96701.66;5102846;28;20051;-60
2023/05/28 06:19:06;;;;;;;1.80;1.80;;;;;;;19.50;84.44;96703.56;5104232;28;20044;-62
2023/05/28 06:21:33;;;;;;;1.90;1.90;;;;;;;20.00;84.24;96703.13;5100633;28;20047;-61
2023/05/28 06:23:59;;;;;;;2.00;2.00;;;;;;;20.41;82.50;96706.88;5083372;28;20056;-61
2023/05/28 06:26:27;;;;;;;1.95;1.95;;;;;;;20.66;78.71;96711.84;5083879;28;20048;-61
2023/05/28 06:28:54;;;;;;;1.98;1.98;;;;;;;20.62;75.92;96705.53;5083586;28;20138;-61
2023/05/28 06:31:22;;;;;;;1.75;1.75;;;;;;;20.46;76.54;96714.00;5083884;28;20131;-61
2023/05/28 06:33:49;;;;;;;2.10;2.10;;;;;;;18.87;77.48;96413.03;5083982;28;20436;-61
2023/05/28 06:36:17;;;;;;;2.10;2.10;;;;;;;20.84;75.85;96717.75;5082634;28;20048;-61
2023/05/28 06:38:44;;;;;;;2.10;2.10;;;;;;;19.74;79.35;96723.88;5083914;28;20469;-61
2023/05/28 06:41:10;;;;;;;1.85;1.85;;;;;;;19.98;78.82;96683.13;5083480;28;20419;-62
2023/05/28 06:43:38;;;;;;;2.10;2.10;;;;;;;20.32;75.50;96717.19;5082046;28;20135;-61
2023/05/28 06:46:04;;;;;;;1.70;1.70;;;;;;;19.74;78.07;96729.50;5082216;28;20476;-62
2023/05/28 06:48:31;;;;;;;2.05;2.05;;;;;;;19.54;79.58;96726.72;5083556;28;20102;-61
2023/05/28 06:50:59;;;;;;;2.00;2.00;;;;;;;19.68;79.85;96725.63;5083954;28;20060;-61
2023/05/28 06:53:25;;;;;;;1.70;1.70;;;;;;;19.54;82.67;96724.72;5081986;28;20044;-60
2023/05/28 06:55:52;;;;;;;1.88;1.88;;;;;;;19.74;81.55;96719.03;5083686;28;20056;-61
2023/05/28 06:58:19;;;;;;;2.08;2.08;;;;;;;20.20;80.31;96713.06;5083192;28;20076;-61
2023/05/28 07:00:46;;;;;;;2.22;2.22;;;;;;;20.17;77.49;96724.44;5083807;28;20513;-60
2023/05/28 07:03:12;;;;;;;1.90;1.90;;;;;;;19.88;79.51;96667.28;5083515;28;20494;-60
2023/05/28 07:05:39;;;;;;;1.80;1.80;;;;;;;20.02;77.57;96706.28;5083880;28;20063;-60
2023/05/28 07:08:06;;;;;;;1.70;1.70;;;;;;;20.04;78.09;96715.09;5083144;28;20052;-60
2023/05/28 07:10:33;;;;;;;2.05;2.05;;;;;;;20.18;78.13;96715.56;5084909;28;20086;-60
2023/05/28 07:13:00;;;;;;;1.98;1.98;;;;;;;20.92;75.05;96713.50;5085740;28;20442;-60
2023/05/28 07:15:27;;;;;;;2.00;2.00;;;;;;;20.33;74.92;96642.81;5087629;28;20063;-60
2023/05/28 07:17:53;;;;;;;1.88;1.88;;;;;;;20.55;75.43;96717.00;5087149;28;20056;-60
2023/05/28 07:20:20;;;;;;;2.08;2.08;;;;;;;19.64;77.52;96640.59;5087306;28;20117;-61
2023/05/28 07:22:47;;;;;;;2.17;2.17;;;;;;;20.24;74.50;96645.47;5099327;28;20062;-61
2023/05/28 07:25:14;;;;;;;2.00;2.00;;;;;;;20.66;74.98;96692.91;5106902;28;20279;-61
2023/05/28 07:27:40;;;;;;;1.90;1.90;;;;;;;21.00;75.09;96703.66;5107556;27;20100;-61
2023/05/28 07:30:08;;;;;;;2.10;2.10;;;;;;;21.08;73.78;96716.28;5105940;28;20052;-60
2023/05/28 07:32:34;;;;;;;2.17;2.17;;;;;;;21.03;71.45;96657.69;4916346;28;5001031;-62
2023/05/28 07:35:01;;;;;;;2.10;2.10;;;;;;;21.44;71.50;96704.72;5106012;28;20120;-61
2023/05/28 07:37:28;;;;;;;1.90;1.90;;;;;;;20.99;73.50;96704.91;5107281;28;20051;-62
2023/05/28 07:39:55;;;;;;;2.53;2.42;;;;;;;21.48;73.48;96689.28;5105776;28;20517;-60
2023/05/28 07:42:21;;;;;;;2.22;2.22;;;;;;;21.95;69.24;96707.13;5106874;28;20140;-60
2023/05/28 07:44:48;;;;;;;2.28;2.28;;;;;;;21.90;69.83;96710.53;5107219;28;20062;-62
2023/05/28 07:47:15;;;;;;;2.20;2.20;;;;;;;21.14;71.29;96711.69;5107551;28;20055;-60
2023/05/28 07:49:42;;;;;;;2.17;2.17;;;;;;;21.71;70.01;96708.69;5105275;28;20063;-60
2023/05/28 07:52:09;;;;;;;2.50;2.40;;;;;;;22.37;68.35;96700.03;5107126;28;20048;-59
2023/05/28 07:54:36;;;;;;;2.33;2.33;;;;;;;22.35;68.19;96705.34;5105198;28;20044;-62
2023/05/28 07:57:03;;;;;;;2.17;2.17;;;;;;;21.54;69.28;96710.06;5105458;28;20066;-61
2023/05/28 07:59:30;;;;;;;2.20;2.20;;;;;;;21.41;69.00;96705.63;5106760;28;20047;-59
2023/05/28 08:01:57;;;;;;;2.00;2.00;;;;;;;21.39;68.72;96660.19;5106380;28;20530;-60
2023/05/28 08:04:23;;;;;;;2.05;2.05;;;;;;;21.50;66.88;96700.91;5106769;28;20055;-61
2023/05/28 08:06:50;;;;;;;2.50;2.40;;;;;;;21.22;66.61;96636.97;5106435;28;20167;-60
2023/05/28 08:09:17;;;;;;;2.55;2.45;;;;;;;21.64;67.15;96703.28;5105226;28;20051;-60
2023/05/28 08:11:44;;;;;;;2.10;2.10;;;;;;;21.30;69.06;96700.34;5106499;28;20075;-60
2023/05/28 08:14:11;;;;;;;2.10;2.10;;;;;;;21.39;70.52;96697.63;5106233;27;20147;-60
2023/05/28 08:16:37;;;;;;;2.60;2.50;;;;;;;22.17;66.06;96688.25;5106315;28;20062;-60
2023/05/28 08:19:04;;;;;;;2.30;2.30;;;;;;;22.06;67.90;96690.66;5104773;28;20051;-61
2023/05/28 08:21:31;;;;;;;2.50;2.40;;;;;;;22.13;64.89;96689.63;5104846;28;20058;-63
2023/05/28 08:23:58;;;;;;;2.55;2.45;;;;;;;21.99;67.54;96684.44;5085805;28;20480;-60
2023/05/28 08:26:25;;;;;;;2.33;2.30;;;;;;;21.93;68.07;96701.16;5085835;28;20506;-62
2023/05/28 08:28:52;;;;;;;2.28;2.28;;;;;;;21.20;67.43;96628.19;5085246;28;20109;-62
2023/05/28 08:31:18;;;;;;;2.45;2.35;;;;;;;22.00;66.61;96692.44;5085753;28;20508;-61
2023/05/28 08:33:45;;;;;;;2.10;2.10;;;;;;;21.49;67.02;96696.53;5084464;28;20101;-61
2023/05/28 08:36:12;;;;;;;2.47;2.38;;;;;;;21.55;67.10;96660.09;5085544;28;20135;-62
2023/05/28 08:38:38;;;;;;;2.42;2.35;;;;;;;22.19;65.71;96671.63;5084354;28;20048;-61
2023/05/28 08:41:07;;;;;;;2.60;2.50;;;;;;;22.45;64.54;96689.28;5085597;28;20056;-60
2023/05/28 08:43:34;;;;;;;2.38;2.33;;;;;;;22.73;65.03;96681.88;5084178;28;20048;-61
2023/05/28 08:46:00;;;;;;;2.55;2.45;;;;;;;22.85;64.59;96684.63;5085258;28;20079;-60
2023/05/28 08:48:30;;;;;;;2.58;2.47;;;;;;;23.15;64.29;96695.22;5084505;28;20455;-60
2023/05/28 08:50:57;;;;;;;2.60;2.50;;;;;;;22.77;67.34;96691.00;5085579;28;20105;-61
2023/05/28 08:53:29;;;;;;;2.20;2.20;;;;;;;22.26;66.25;96705.28;5083895;28;20051;-61
2023/05/28 08:55:57;;;;;;;2.70;2.60;;;;;;;22.60;64.14;96706.56;5085508;28;20050;-61
2023/05/28 08:58:24;;;;;;;2.72;2.63;;;;;;;22.24;65.78;96702.09;5085391;28;20055;-61
2023/05/28 09:00:51;;;;;;;2.40;2.30;;;;;;;22.56;65.78;96708.72;5085355;28;20396;-60
2023/05/28 09:03:18;;;;;;;2.30;2.28;;;;;;;21.70;67.07;96701.50;5085262;28;20484;-61
2023/05/28 09:05:44;;;;;;;2.10;2.10;;;;;;;21.59;68.02;96695.38;5085145;28;20047;-62
2023/05/28 09:08:13;;;;;;;2.45;2.35;;;;;;;21.57;69.33;96682.97;5085235;28;20136;-61
2023/05/28 09:10:40;;;;;;;2.50;2.40;;;;;;;21.35;69.86;96685.69;5085308;28;20131;-60
2023/05/28 09:13:07;;;;;;;2.50;2.40;;;;;;;22.11;67.40;96692.88;5080258;28;20054;-62
2023/05/28 09:15:35;;;;;;;2.50;2.40;;;;;;;22.16;68.15;96689.47;5071801;28;20048;-60
2023/05/28 09:18:04;;;;;;;2.33;2.30;;;;;;;21.95;68.38;96700.69;5064823;28;20110;-60
2023/05/28 09:20:31;;;;;;;2.20;2.20;;;;;;;22.19;66.73;96693.44;5064604;28;20102;-60
2023/05/28 09:23:00;;;;;;;2.22;2.22;;;;;;;22.39;69.05;96691.91;5086833;28;20051;-63
2023/05/28 09:25:28;;;;;;;2.30;2.30;;;;;;;22.19;66.70;96637.00;5105429;28;20058;-61
2023/05/28 09:27:56;;;;;;;2.42;2.33;;;;;;;22.72;64.09;96694.41;5105320;28;20609;-61
2023/05/28 09:30:24;;;;;;;2.60;2.50;;;;;;;22.88;64.55;96694.22;5103394;28;20378;-61
2023/05/28 09:33:05;;;;;;;2.60;2.50;;;;;;;22.92;63.97;96680.78;5075197;28;20582;-62
2023/05/28 09:35:32;;;;;;;2.50;2.40;;;;;;;22.11;66.09;96692.09;5064473;28;20067;-61
2023/05/28 09:38:04;;;;;;;2.95;2.85;;;;;;;22.36;64.41;96687.19;5077963;28;20097;-61
2023/05/28 09:40:31;;;;;;;2.58;2.47;;;;;;;21.27;64.92;96518.09;5084436;28;20247;-61
2023/05/28 09:42:58;;;;;;;2.55;2.45;;;;;;;22.69;63.92;96693.28;5084855;28;20040;-61
2023/05/28 09:45:27;;;;;;;2.50;2.40;;;;;;;22.19;63.41;96666.00;5084382;28;20048;-61
2023/05/28 09:47:54;;;;;;;2.40;2.35;;;;;;;21.97;65.03;96642.56;5084505;28;20098;-60
2023/05/28 09:50:21;;;;;;;2.50;2.40;;;;;;;22.40;63.51;96682.19;5078970;28;20143;-62
2023/05/28 09:52:47;;;;;;;2.72;2.63;;;;;;;21.96;66.12;96674.84;5064364;28;20052;-61
2023/05/28 09:55:18;;;;;;;2.30;2.30;;;;;;;22.41;65.12;96672.47;5064298;28;20052;-61
2023/05/28 09:57:46;;;;;;;2.13;2.13;;;;;;;22.77;64.63;96654.28;5062950;28;20052;-62
2023/05/28 10:00:22;;;;;;;2.42;2.35;;;;;;;22.52;64.71;96648.75;5063677;28;20048;-62
2023/05/28 10:03:28;;;;;;;2.70;2.60;;;;;;;22.72;64.66;96652.03;5062316;28;20060;-61
2023/05/28 10:06:05;;;;;;;2.70;2.60;;;;;;;22.16;64.20;96599.19;5061190;28;20052;-62
2023/05/28 10:08:37;;;;;;;2.90;2.80;;;;;;;23.08;62.97;96660.78;5063885;28;20102;-60
2023/05/28 10:11:15;;;;;;;2.53;2.42;;;;;;;22.35;64.21;96605.78;5063983;28;20530;-61
2023/05/28 10:13:42;;;;;;;2.63;2.53;;;;;;;22.76;62.85;96655.53;5064135;28;20045;-61
2023/05/28 10:16:09;;;;;;;2.75;2.65;;;;;;;23.29;60.39;96662.81;5063569;28;21046;-61
2023/05/28 10:18:36;;;;;;;2.60;2.50;;;;;;;22.77;58.19;96586.50;5061490;28;20525;-62
2023/05/28 10:21:07;;;;;;;2.75;2.65;;;;;;;23.18;60.44;96651.09;5062855;28;20071;-62
2023/05/28 10:23:35;;;;;;;2.83;2.72;;;;;;;23.03;60.84;96600.00;5096118;28;20054;-62
2023/05/28 10:26:02;;;;;;;2.67;2.58;;;;;;;22.28;62.78;96651.19;5095298;28;20079;-61
2023/05/28 10:28:30;;;;;;;2.70;2.60;;;;;;;22.74;61.44;96578.94;5082821;28;20048;-61
2023/05/28 10:31:05;;;;;;;2.83;2.72;;;;;;;22.94;61.04;96641.53;5081431;28;20052;-62
2023/05/28 10:33:43;;;;;;;2.80;2.70;;;;;;;23.39;62.75;96634.13;5082031;28;20047;-61
2023/05/28 10:36:14;;;;;;;2.85;2.75;;;;;;;23.24;60.88;96637.94;5063316;28;20519;-61
2023/05/28 10:38:43;;;;;;;2.97;2.88;;;;;;;23.48;59.77;96625.69;5063805;28;20052;-60
2023/05/28 10:41:10;;;;;;;3.08;2.97;;;;;;;23.65;61.13;96629.81;5076880;28;20368;-61
2023/05/28 10:43:45;;;;;;;2.88;2.78;;;;;;;23.03;60.93;96621.81;5083734;28;20344;-61
2023/05/28 10:46:35;;;;;;;2.97;2.88;;;;;;;22.80;61.90;96611.00;5087658;28;20052;-60
2023/05/28 10:49:05;;;;;;;2.72;2.63;;;;;;;22.68;62.20;96606.22;5088081;28;20135;-61
2023/05/28 10:52:03;;;;;;;2.70;2.60;;;;;;;22.97;62.53;96601.06;5087535;28;20356;-61
2023/05/28 10:54:29;;;;;;;2.65;2.55;;;;;;;22.22;59.77;96597.34;5086487;28;20139;-61
2023/05/28 10:57:20;;;;;;;2.40;2.30;;;;;;;22.64;62.07;96594.25;5087394;28;20073;-62
2023/05/28 10:59:48;;;;;;;2.72;2.63;;;;;;;22.29;61.39;96588.66;5082498;28;20159;-61
2023/05/28 11:02:22;;;;;;;2.72;2.63;;;;;;;21.98;63.04;96542.63;5082824;28;20465;-61
2023/05/28 11:04:54;;;;;;;2.70;2.60;;;;;;;22.65;62.51;96517.56;5057558;28;20060;-62
2023/05/28 11:07:22;;;;;;;2.90;2.80;;;;;;;23.38;58.06;96592.16;5107056;28;20405;-62
2023/05/28 11:09:50;;;;;;;2.90;2.80;;;;;;;22.75;60.94;96597.47;5107623;28;20728;-60
2023/05/28 11:12:19;;;;;;;2.72;2.63;;;;;;;22.41;61.14;96536.97;5090117;28;20047;-61
2023/05/28 11:14:47;;;;;;;2.85;2.75;;;;;;;22.38;62.08;96498.38;5087710;28;20052;-61
2023/05/28 11:17:14;;;;;;;2.67;2.58;;;;;;;23.76;60.34;96601.09;5086992;28;20491;-61
2023/05/28 11:19:45;;;;;;;2.63;2.53;;;;;;;23.58;58.49;96615.19;5086877;28;20135;-61
2023/05/28 11:22:14;;;;;;;2.50;2.40;;;;;;;23.02;60.42;96608.94;5086944;28;20164;-63
2023/05/28 11:25:05;;;;;;;2.50;2.40;;;;;;;22.04;61.38;96580.28;5085756;28;20394;-61
2023/05/28 11:27:35;;;;;;;2.70;2.60;;;;;;;22.94;62.99;96616.09;5106023;28;20135;-61
2023/05/28 11:30:08;;;;;;;2.60;2.50;;;;;;;22.63;61.40;96595.50;5107588;28;20051;-61
2023/05/28 11:32:35;;;;;;;2.60;2.50;;;;;;;22.73;60.99;96620.50;5096136;28;20040;-62
2023/05/28 11:35:03;;;;;;;2.70;2.60;;;;;;;22.48;61.02;96559.31;5085164;28;22446;-63